sensor_id;sensor_type;location;lat;lon;timestamp;temperature;humidity
31677;DHT22;18385;51.572;6.578;2023-01-19T00:00:59;4.20;71.80
31677;DHT22;18385;51.572;6.578;2023-01-19T00:03:25;4.20;71.90
31677;DHT22;18385;51.572;6.578;2023-01-19T00:05:51;4.10;71.80
31677;DHT22;18385;51.572;6.578;2023-01-19T00:08:17;4.10;71.90
31677;DHT22;18385;51.572;6.578;2023-01-19T00:10:45;4.10;71.90
31677;DHT22;18385;51.572;6.578;2023-01-19T00:13:11;4.10;72.10
31677;DHT22;18385;51.572;6.578;2023-01-19T00:15:37;4.10;72.00
31677;DHT22;18385;51.572;6.578;2023-01-19T00:18:03;4.10;72.00
31677;DHT22;18385;51.572;6.578;2023-01-19T00:20:28;4.10;72.10
31677;DHT22;18385;51.572;6.578;2023-01-19T00:22:56;4.10;72.10
31677;DHT22;18385;51.572;6.578;2023-01-19T00:25:22;4.10;72.00
31677;DHT22;18385;51.572;6.578;2023-01-19T00:27:47;4.10;72.10
31677;DHT22;18385;51.572;6.578;2023-01-19T00:30:14;4.10;72.10
31677;DHT22;18385;51.572;6.578;2023-01-19T00:32:40;4.10;72.20
31677;DHT22;18385;51.572;6.578;2023-01-19T00:35:06;4.20;72.20
31677;DHT22;18385;51.572;6.578;2023-01-19T00:37:32;4.20;72.20
31677;DHT22;18385;51.572;6.578;2023-01-19T00:39:58;4.20;72.10
31677;DHT22;18385;51.572;6.578;2023-01-19T00:42:23;4.20;72.10
31677;DHT22;18385;51.572;6.578;2023-01-19T00:45:06;4.30;72.20
31677;DHT22;18385;51.572;6.578;2023-01-19T00:47:32;4.30;72.30
31677;DHT22;18385;51.572;6.578;2023-01-19T00:49:57;4.40;72.30
31677;DHT22;18385;51.572;6.578;2023-01-19T00:52:23;4.40;72.20
31677;DHT22;18385;51.572;6.578;2023-01-19T00:54:49;4.50;72.20
31677;DHT22;18385;51.572;6.578;2023-01-19T00:57:15;4.60;72.20
31677;DHT22;18385;51.572;6.578;2023-01-19T00:59:41;4.60;72.20
31677;DHT22;18385;51.572;6.578;2023-01-19T01:02:06;4.70;72.20
31677;DHT22;18385;51.572;6.578;2023-01-19T01:04:32;4.70;72.10
31677;DHT22;18385;51.572;6.578;2023-01-19T01:06:58;4.80;72.10
31677;DHT22;18385;51.572;6.578;2023-01-19T01:09:23;4.90;72.00
31677;DHT22;18385;51.572;6.578;2023-01-19T01:11:49;4.90;72.00
31677;DHT22;18385;51.572;6.578;2023-01-19T01:14:15;4.90;71.90
31677;DHT22;18385;51.572;6.578;2023-01-19T01:16:41;5.00;72.10
31677;DHT22;18385;51.572;6.578;2023-01-19T01:19:07;5.00;72.10
31677;DHT22;18385;51.572;6.578;2023-01-19T01:21:33;5.10;72.00
31677;DHT22;18385;51.572;6.578;2023-01-19T01:24:00;5.10;72.00
31677;DHT22;18385;51.572;6.578;2023-01-19T01:26:25;5.20;72.00
31677;DHT22;18385;51.572;6.578;2023-01-19T01:28:51;5.20;71.90
31677;DHT22;18385;51.572;6.578;2023-01-19T01:31:17;5.20;71.90
31677;DHT22;18385;51.572;6.578;2023-01-19T01:33:42;5.30;71.90
31677;DHT22;18385;51.572;6.578;2023-01-19T01:36:09;5.40;72.00
31677;DHT22;18385;51.572;6.578;2023-01-19T01:38:36;5.40;71.80
31677;DHT22;18385;51.572;6.578;2023-01-19T01:41:02;5.30;71.60
31677;DHT22;18385;51.572;6.578;2023-01-19T01:46:09;5.20;71.60
31677;DHT22;18385;51.572;6.578;2023-01-19T01:48:36;5.10;71.70
31677;DHT22;18385;51.572;6.578;2023-01-19T01:51:08;5.00;71.80
31677;DHT22;18385;51.572;6.578;2023-01-19T01:56:43;4.90;72.30
31677;DHT22;18385;51.572;6.578;2023-01-19T01:59:17;5.00;72.40
31677;DHT22;18385;51.572;6.578;2023-01-19T02:01:52;5.10;72.40
31677;DHT22;18385;51.572;6.578;2023-01-19T02:04:39;5.20;72.40
31677;DHT22;18385;51.572;6.578;2023-01-19T02:07:10;5.30;72.30
31677;DHT22;18385;51.572;6.578;2023-01-19T02:09:55;5.40;72.30
31677;DHT22;18385;51.572;6.578;2023-01-19T02:12:39;5.50;72.10
31677;DHT22;18385;51.572;6.578;2023-01-19T02:15:23;5.50;72.00
31677;DHT22;18385;51.572;6.578;2023-01-19T02:17:49;5.50;72.00
31677;DHT22;18385;51.572;6.578;2023-01-19T02:20:16;5.50;72.00
31677;DHT22;18385;51.572;6.578;2023-01-19T02:22:49;5.50;71.90
31677;DHT22;18385;51.572;6.578;2023-01-19T02:25:18;5.60;71.90
31677;DHT22;18385;51.572;6.578;2023-01-19T02:27:44;5.60;72.00
31677;DHT22;18385;51.572;6.578;2023-01-19T02:30:10;5.60;71.80
31677;DHT22;18385;51.572;6.578;2023-01-19T02:32:37;5.60;71.80
31677;DHT22;18385;51.572;6.578;2023-01-19T02:35:02;5.60;71.80
31677;DHT22;18385;51.572;6.578;2023-01-19T02:37:31;5.60;71.80
31677;DHT22;18385;51.572;6.578;2023-01-19T02:39:58;5.60;71.80
31677;DHT22;18385;51.572;6.578;2023-01-19T02:42:36;5.60;71.70
31677;DHT22;18385;51.572;6.578;2023-01-19T02:45:03;5.60;71.70
31677;DHT22;18385;51.572;6.578;2023-01-19T02:47:43;5.50;71.80
31677;DHT22;18385;51.572;6.578;2023-01-19T02:53:09;5.40;71.90
31677;DHT22;18385;51.572;6.578;2023-01-19T02:55:39;5.30;71.90
31677;DHT22;18385;51.572;6.578;2023-01-19T02:58:25;5.20;72.20
31677;DHT22;18385;51.572;6.578;2023-01-19T03:01:18;5.20;73.10
31677;DHT22;18385;51.572;6.578;2023-01-19T03:03:56;5.30;72.40
31677;DHT22;18385;51.572;6.578;2023-01-19T03:09:26;5.50;72.40
31677;DHT22;18385;51.572;6.578;2023-01-19T03:12:04;5.50;72.30
31677;DHT22;18385;51.572;6.578;2023-01-19T03:14:37;5.60;72.20
31677;DHT22;18385;51.572;6.578;2023-01-19T03:17:06;5.60;72.20
31677;DHT22;18385;51.572;6.578;2023-01-19T03:19:38;5.60;72.10
31677;DHT22;18385;51.572;6.578;2023-01-19T03:22:14;5.70;72.10
31677;DHT22;18385;51.572;6.578;2023-01-19T03:24:42;5.70;72.10
31677;DHT22;18385;51.572;6.578;2023-01-19T03:27:10;5.70;72.10
31677;DHT22;18385;51.572;6.578;2023-01-19T03:29:41;5.70;72.10
31677;DHT22;18385;51.572;6.578;2023-01-19T03:32:14;5.60;72.00
31677;DHT22;18385;51.572;6.578;2023-01-19T03:34:42;5.60;71.90
31677;DHT22;18385;51.572;6.578;2023-01-19T03:37:10;5.50;71.90
31677;DHT22;18385;51.572;6.578;2023-01-19T03:39:39;5.40;71.90
31677;DHT22;18385;51.572;6.578;2023-01-19T03:42:08;5.40;71.90
31677;DHT22;18385;51.572;6.578;2023-01-19T03:44:36;5.20;71.90
31677;DHT22;18385;51.572;6.578;2023-01-19T03:47:04;5.10;71.90
31677;DHT22;18385;51.572;6.578;2023-01-19T03:49:30;5.00;72.00
31677;DHT22;18385;51.572;6.578;2023-01-19T03:51:57;4.90;72.10
31677;DHT22;18385;51.572;6.578;2023-01-19T03:54:24;4.90;72.20
31677;DHT22;18385;51.572;6.578;2023-01-19T03:56:50;4.80;72.30
31677;DHT22;18385;51.572;6.578;2023-01-19T03:59:17;4.80;72.50
31677;DHT22;18385;51.572;6.578;2023-01-19T04:01:45;4.80;72.60
31677;DHT22;18385;51.572;6.578;2023-01-19T04:04:11;4.80;72.70
31677;DHT22;18385;51.572;6.578;2023-01-19T04:06:38;4.80;72.70
31677;DHT22;18385;51.572;6.578;2023-01-19T04:09:04;4.90;73.10
31677;DHT22;18385;51.572;6.578;2023-01-19T04:11:30;4.90;72.60
31677;DHT22;18385;51.572;6.578;2023-01-19T04:13:56;4.90;72.50
31677;DHT22;18385;51.572;6.578;2023-01-19T04:16:21;4.90;72.50
31677;DHT22;18385;51.572;6.578;2023-01-19T04:18:48;4.80;72.70
31677;DHT22;18385;51.572;6.578;2023-01-19T04:21:14;4.90;72.80
31677;DHT22;18385;51.572;6.578;2023-01-19T04:23:40;4.90;72.80
31677;DHT22;18385;51.572;6.578;2023-01-19T04:26:07;4.90;72.80
31677;DHT22;18385;51.572;6.578;2023-01-19T04:28:33;5.00;73.00
31677;DHT22;18385;51.572;6.578;2023-01-19T04:30:59;5.00;72.90
31677;DHT22;18385;51.572;6.578;2023-01-19T04:33:26;5.00;72.90
31677;DHT22;18385;51.572;6.578;2023-01-19T04:35:52;5.10;72.90
31677;DHT22;18385;51.572;6.578;2023-01-19T04:38:19;5.10;73.00
31677;DHT22;18385;51.572;6.578;2023-01-19T04:40:45;5.10;73.00
31677;DHT22;18385;51.572;6.578;2023-01-19T04:43:11;5.10;73.00
31677;DHT22;18385;51.572;6.578;2023-01-19T04:45:37;5.00;72.90
31677;DHT22;18385;51.572;6.578;2023-01-19T04:48:03;5.10;73.00
31677;DHT22;18385;51.572;6.578;2023-01-19T04:50:29;5.10;72.90
31677;DHT22;18385;51.572;6.578;2023-01-19T04:52:55;5.00;72.60
31677;DHT22;18385;51.572;6.578;2023-01-19T04:55:21;5.00;72.60
31677;DHT22;18385;51.572;6.578;2023-01-19T04:57:46;5.00;72.70
31677;DHT22;18385;51.572;6.578;2023-01-19T05:00:12;4.90;72.70
31677;DHT22;18385;51.572;6.578;2023-01-19T05:02:38;4.90;72.70
31677;DHT22;18385;51.572;6.578;2023-01-19T05:05:06;4.90;72.70
31677;DHT22;18385;51.572;6.578;2023-01-19T05:07:32;4.90;72.80
31677;DHT22;18385;51.572;6.578;2023-01-19T05:09:58;4.90;72.90
31677;DHT22;18385;51.572;6.578;2023-01-19T05:12:24;4.90;72.90
31677;DHT22;18385;51.572;6.578;2023-01-19T05:14:49;4.80;72.90
31677;DHT22;18385;51.572;6.578;2023-01-19T05:17:15;4.80;73.00
31677;DHT22;18385;51.572;6.578;2023-01-19T05:19:41;4.80;73.10
31677;DHT22;18385;51.572;6.578;2023-01-19T05:22:06;4.90;73.10
31677;DHT22;18385;51.572;6.578;2023-01-19T05:24:32;4.90;73.10
31677;DHT22;18385;51.572;6.578;2023-01-19T05:26:58;4.80;73.20
31677;DHT22;18385;51.572;6.578;2023-01-19T05:29:24;4.90;73.30
31677;DHT22;18385;51.572;6.578;2023-01-19T05:31:49;4.90;73.20
31677;DHT22;18385;51.572;6.578;2023-01-19T05:34:15;5.00;73.20
31677;DHT22;18385;51.572;6.578;2023-01-19T05:36:41;5.00;73.20
31677;DHT22;18385;51.572;6.578;2023-01-19T05:39:07;4.90;73.10
31677;DHT22;18385;51.572;6.578;2023-01-19T05:41:33;4.90;73.10
31677;DHT22;18385;51.572;6.578;2023-01-19T05:43:58;4.90;73.10
31677;DHT22;18385;51.572;6.578;2023-01-19T05:46:25;5.00;73.30
31677;DHT22;18385;51.572;6.578;2023-01-19T05:48:51;5.00;73.20
31677;DHT22;18385;51.572;6.578;2023-01-19T05:51:17;5.00;73.30
31677;DHT22;18385;51.572;6.578;2023-01-19T05:53:42;4.90;73.20
31677;DHT22;18385;51.572;6.578;2023-01-19T05:56:09;4.90;73.30
31677;DHT22;18385;51.572;6.578;2023-01-19T05:58:36;4.90;73.30
31677;DHT22;18385;51.572;6.578;2023-01-19T06:01:08;4.90;73.40
31677;DHT22;18385;51.572;6.578;2023-01-19T06:03:35;5.00;73.50
31677;DHT22;18385;51.572;6.578;2023-01-19T06:06:02;5.00;73.40
31677;DHT22;18385;51.572;6.578;2023-01-19T06:08:28;5.00;73.30
31677;DHT22;18385;51.572;6.578;2023-01-19T06:10:54;5.10;73.30
31677;DHT22;18385;51.572;6.578;2023-01-19T06:13:20;5.00;73.30
31677;DHT22;18385;51.572;6.578;2023-01-19T06:15:46;5.00;73.30
31677;DHT22;18385;51.572;6.578;2023-01-19T06:18:12;5.00;74.00
31677;DHT22;18385;51.572;6.578;2023-01-19T06:20:39;5.00;73.30
31677;DHT22;18385;51.572;6.578;2023-01-19T06:23:05;5.00;73.50
31677;DHT22;18385;51.572;6.578;2023-01-19T06:25:31;5.10;73.50
31677;DHT22;18385;51.572;6.578;2023-01-19T06:27:56;5.10;73.50
31677;DHT22;18385;51.572;6.578;2023-01-19T06:30:22;5.10;73.50
31677;DHT22;18385;51.572;6.578;2023-01-19T06:32:48;5.10;73.50
31677;DHT22;18385;51.572;6.578;2023-01-19T06:35:14;5.10;73.50
31677;DHT22;18385;51.572;6.578;2023-01-19T06:37:40;5.10;73.60
31677;DHT22;18385;51.572;6.578;2023-01-19T06:40:06;5.20;73.60
31677;DHT22;18385;51.572;6.578;2023-01-19T06:42:32;5.10;73.50
31677;DHT22;18385;51.572;6.578;2023-01-19T06:44:59;5.10;73.60
31677;DHT22;18385;51.572;6.578;2023-01-19T06:47:24;5.20;73.70
31677;DHT22;18385;51.572;6.578;2023-01-19T06:49:50;5.20;73.60
31677;DHT22;18385;51.572;6.578;2023-01-19T06:52:16;5.20;73.70
31677;DHT22;18385;51.572;6.578;2023-01-19T06:54:43;5.20;73.60
31677;DHT22;18385;51.572;6.578;2023-01-19T06:57:10;5.10;73.50
31677;DHT22;18385;51.572;6.578;2023-01-19T06:59:37;5.10;73.60
31677;DHT22;18385;51.572;6.578;2023-01-19T07:02:03;5.10;73.60
31677;DHT22;18385;51.572;6.578;2023-01-19T07:04:28;5.10;73.70
31677;DHT22;18385;51.572;6.578;2023-01-19T07:06:54;5.10;73.80
31677;DHT22;18385;51.572;6.578;2023-01-19T07:09:20;5.10;73.80
31677;DHT22;18385;51.572;6.578;2023-01-19T07:11:46;5.10;73.80
31677;DHT22;18385;51.572;6.578;2023-01-19T07:14:13;5.10;73.70
31677;DHT22;18385;51.572;6.578;2023-01-19T07:16:39;5.10;73.80
31677;DHT22;18385;51.572;6.578;2023-01-19T07:19:04;5.10;73.80
31677;DHT22;18385;51.572;6.578;2023-01-19T07:21:30;5.20;73.90
31677;DHT22;18385;51.572;6.578;2023-01-19T07:23:56;5.20;73.90
31677;DHT22;18385;51.572;6.578;2023-01-19T07:26:22;5.20;74.00
31677;DHT22;18385;51.572;6.578;2023-01-19T07:28:50;5.20;74.00
31677;DHT22;18385;51.572;6.578;2023-01-19T07:31:17;5.30;74.00
31677;DHT22;18385;51.572;6.578;2023-01-19T07:33:44;5.30;74.00
31677;DHT22;18385;51.572;6.578;2023-01-19T07:36:10;5.30;73.90
31677;DHT22;18385;51.572;6.578;2023-01-19T07:38:35;5.30;73.80
31677;DHT22;18385;51.572;6.578;2023-01-19T07:41:02;5.30;73.80
31677;DHT22;18385;51.572;6.578;2023-01-19T07:43:28;5.30;73.80
31677;DHT22;18385;51.572;6.578;2023-01-19T07:46:02;5.30;73.80
31677;DHT22;18385;51.572;6.578;2023-01-19T07:48:28;5.20;73.90
31677;DHT22;18385;51.572;6.578;2023-01-19T07:51:02;5.30;74.00
31677;DHT22;18385;51.572;6.578;2023-01-19T07:53:30;5.30;74.00
31677;DHT22;18385;51.572;6.578;2023-01-19T07:55:56;5.30;74.00
31677;DHT22;18385;51.572;6.578;2023-01-19T07:58:23;5.30;74.00
31677;DHT22;18385;51.572;6.578;2023-01-19T08:00:49;5.30;74.00
31677;DHT22;18385;51.572;6.578;2023-01-19T08:03:15;5.40;74.00
31677;DHT22;18385;51.572;6.578;2023-01-19T08:05:42;5.40;74.00
31677;DHT22;18385;51.572;6.578;2023-01-19T08:08:07;5.40;73.90
31677;DHT22;18385;51.572;6.578;2023-01-19T08:10:33;5.40;73.80
31677;DHT22;18385;51.572;6.578;2023-01-19T08:12:59;5.40;73.90
31677;DHT22;18385;51.572;6.578;2023-01-19T08:15:25;5.40;74.70
31677;DHT22;18385;51.572;6.578;2023-01-19T08:17:58;5.50;74.00
31677;DHT22;18385;51.572;6.578;2023-01-19T08:20:25;5.50;74.70
31677;DHT22;18385;51.572;6.578;2023-01-19T08:22:52;5.60;74.00
31677;DHT22;18385;51.572;6.578;2023-01-19T08:25:41;5.60;73.90
31677;DHT22;18385;51.572;6.578;2023-01-19T08:28:09;5.60;73.70
31677;DHT22;18385;51.572;6.578;2023-01-19T08:30:35;5.70;74.00
31677;DHT22;18385;51.572;6.578;2023-01-19T08:33:01;5.70;73.90
31677;DHT22;18385;51.572;6.578;2023-01-19T08:35:34;5.70;73.90
31677;DHT22;18385;51.572;6.578;2023-01-19T08:38:01;5.80;73.90
31677;DHT22;18385;51.572;6.578;2023-01-19T08:40:29;5.80;73.80
31677;DHT22;18385;51.572;6.578;2023-01-19T08:42:59;5.80;73.70
31677;DHT22;18385;51.572;6.578;2023-01-19T08:45:28;5.90;73.90
31677;DHT22;18385;51.572;6.578;2023-01-19T08:47:56;5.90;73.90
31677;DHT22;18385;51.572;6.578;2023-01-19T08:50:33;5.90;73.90
31677;DHT22;18385;51.572;6.578;2023-01-19T08:53:00;5.90;73.70
31677;DHT22;18385;51.572;6.578;2023-01-19T08:55:27;5.90;73.70
31677;DHT22;18385;51.572;6.578;2023-01-19T08:57:54;6.00;73.80
31677;DHT22;18385;51.572;6.578;2023-01-19T09:00:25;6.00;73.70
31677;DHT22;18385;51.572;6.578;2023-01-19T09:02:52;6.00;73.60
31677;DHT22;18385;51.572;6.578;2023-01-19T09:05:18;6.00;73.70
31677;DHT22;18385;51.572;6.578;2023-01-19T09:07:44;6.00;73.80
31677;DHT22;18385;51.572;6.578;2023-01-19T09:10:13;6.10;73.70
31677;DHT22;18385;51.572;6.578;2023-01-19T09:12:39;6.10;73.60
31677;DHT22;18385;51.572;6.578;2023-01-19T09:15:06;6.10;73.60
31677;DHT22;18385;51.572;6.578;2023-01-19T09:17:32;6.10;73.70
31677;DHT22;18385;51.572;6.578;2023-01-19T09:19:58;6.10;73.80
31677;DHT22;18385;51.572;6.578;2023-01-19T09:22:24;6.10;73.60
31677;DHT22;18385;51.572;6.578;2023-01-19T09:24:49;6.10;73.50
31677;DHT22;18385;51.572;6.578;2023-01-19T09:27:15;6.10;73.60
31677;DHT22;18385;51.572;6.578;2023-01-19T09:29:41;6.00;73.70
31677;DHT22;18385;51.572;6.578;2023-01-19T09:32:06;6.10;73.90
31677;DHT22;18385;51.572;6.578;2023-01-19T09:34:33;6.10;73.90
31677;DHT22;18385;51.572;6.578;2023-01-19T09:36:59;6.20;73.90
31677;DHT22;18385;51.572;6.578;2023-01-19T09:39:24;6.30;73.90
31677;DHT22;18385;51.572;6.578;2023-01-19T09:42:08;6.30;73.70
31677;DHT22;18385;51.572;6.578;2023-01-19T09:44:36;6.40;73.70
31677;DHT22;18385;51.572;6.578;2023-01-19T09:47:03;6.30;73.60
31677;DHT22;18385;51.572;6.578;2023-01-19T09:49:43;6.40;73.70
31677;DHT22;18385;51.572;6.578;2023-01-19T09:52:11;6.40;73.50
31677;DHT22;18385;51.572;6.578;2023-01-19T09:57:10;6.40;73.50
31677;DHT22;18385;51.572;6.578;2023-01-19T09:59:37;6.40;73.40
31677;DHT22;18385;51.572;6.578;2023-01-19T10:05:01;6.50;73.80
31677;DHT22;18385;51.572;6.578;2023-01-19T10:10:12;6.80;73.50
31677;DHT22;18385;51.572;6.578;2023-01-19T10:16:00;7.10;73.60
31677;DHT22;18385;51.572;6.578;2023-01-19T10:18:49;7.20;73.00
31677;DHT22;18385;51.572;6.578;2023-01-19T10:21:20;7.10;72.80
31677;DHT22;18385;51.572;6.578;2023-01-19T10:26:42;7.10;73.20
31677;DHT22;18385;51.572;6.578;2023-01-19T10:31:47;7.30;73.10
31677;DHT22;18385;51.572;6.578;2023-01-19T10:34:15;7.30;73.00
31677;DHT22;18385;51.572;6.578;2023-01-19T10:36:46;7.30;72.90
31677;DHT22;18385;51.572;6.578;2023-01-19T10:39:15;7.30;72.80
31677;DHT22;18385;51.572;6.578;2023-01-19T10:41:43;7.40;72.80
31677;DHT22;18385;51.572;6.578;2023-01-19T10:44:09;7.30;72.70
31677;DHT22;18385;51.572;6.578;2023-01-19T10:46:47;7.40;72.80
31677;DHT22;18385;51.572;6.578;2023-01-19T10:49:40;7.50;72.90
31677;DHT22;18385;51.572;6.578;2023-01-19T10:52:30;7.60;73.30
31677;DHT22;18385;51.572;6.578;2023-01-19T10:54:56;7.60;72.60
31677;DHT22;18385;51.572;6.578;2023-01-19T10:57:28;7.50;72.60
31677;DHT22;18385;51.572;6.578;2023-01-19T10:59:55;7.50;72.70
31677;DHT22;18385;51.572;6.578;2023-01-19T11:02:23;7.50;72.60
31677;DHT22;18385;51.572;6.578;2023-01-19T11:04:57;7.50;72.50
31677;DHT22;18385;51.572;6.578;2023-01-19T11:07:29;7.40;72.60
31677;DHT22;18385;51.572;6.578;2023-01-19T11:12:54;7.30;72.60
31677;DHT22;18385;51.572;6.578;2023-01-19T11:15:23;7.30;72.80
31677;DHT22;18385;51.572;6.578;2023-01-19T11:17:50;7.10;72.70
31677;DHT22;18385;51.572;6.578;2023-01-19T11:22:44;7.30;73.20
31677;DHT22;18385;51.572;6.578;2023-01-19T11:25:29;7.30;72.90
31677;DHT22;18385;51.572;6.578;2023-01-19T11:27:55;7.30;72.70
31677;DHT22;18385;51.572;6.578;2023-01-19T11:30:24;7.30;72.90
31677;DHT22;18385;51.572;6.578;2023-01-19T11:32:50;7.30;73.00
31677;DHT22;18385;51.572;6.578;2023-01-19T11:35:36;7.50;73.40
31677;DHT22;18385;51.572;6.578;2023-01-19T11:40:37;7.70;72.60
31677;DHT22;18385;51.572;6.578;2023-01-19T11:43:03;7.70;72.80
31677;DHT22;18385;51.572;6.578;2023-01-19T11:45:31;7.80;72.90
31677;DHT22;18385;51.572;6.578;2023-01-19T11:47:59;8.00;72.70
31677;DHT22;18385;51.572;6.578;2023-01-19T11:50:32;8.10;72.40
31677;DHT22;18385;51.572;6.578;2023-01-19T11:53:06;8.20;72.30
31677;DHT22;18385;51.572;6.578;2023-01-19T11:55:52;8.30;72.30
31677;DHT22;18385;51.572;6.578;2023-01-19T11:58:19;8.40;72.10
31677;DHT22;18385;51.572;6.578;2023-01-19T12:03:43;8.50;71.50
31677;DHT22;18385;51.572;6.578;2023-01-19T12:06:17;8.40;71.60
31677;DHT22;18385;51.572;6.578;2023-01-19T12:08:48;8.30;71.70
31677;DHT22;18385;51.572;6.578;2023-01-19T12:11:19;8.30;71.90
31677;DHT22;18385;51.572;6.578;2023-01-19T12:13:48;8.40;72.20
31677;DHT22;18385;51.572;6.578;2023-01-19T12:16:20;8.40;71.90
31677;DHT22;18385;51.572;6.578;2023-01-19T12:19:02;8.30;71.60
31677;DHT22;18385;51.572;6.578;2023-01-19T12:21:28;8.20;71.60
31677;DHT22;18385;51.572;6.578;2023-01-19T12:24:56;8.10;72.00
31677;DHT22;18385;51.572;6.578;2023-01-19T12:27:09;8.10;72.10
31677;DHT22;18385;51.572;6.578;2023-01-19T12:29:38;8.20;72.10
31677;DHT22;18385;51.572;6.578;2023-01-19T12:40:16;8.00;71.90
31677;DHT22;18385;51.572;6.578;2023-01-19T12:42:50;7.90;71.60
31677;DHT22;18385;51.572;6.578;2023-01-19T12:45:24;7.80;71.90
31677;DHT22;18385;51.572;6.578;2023-01-19T12:47:54;7.70;72.30
31677;DHT22;18385;51.572;6.578;2023-01-19T12:50:22;7.70;72.30
31677;DHT22;18385;51.572;6.578;2023-01-19T12:52:58;7.70;72.30
31677;DHT22;18385;51.572;6.578;2023-01-19T12:55:29;7.70;72.50
31677;DHT22;18385;51.572;6.578;2023-01-19T13:00:38;7.60;72.10
31677;DHT22;18385;51.572;6.578;2023-01-19T13:05:54;7.50;72.40
31677;DHT22;18385;51.572;6.578;2023-01-19T13:08:28;7.50;72.70
31677;DHT22;18385;51.572;6.578;2023-01-19T13:11:15;7.50;72.60
31677;DHT22;18385;51.572;6.578;2023-01-19T13:23:53;7.60;72.60
31677;DHT22;18385;51.572;6.578;2023-01-19T13:31:52;7.60;72.50
31677;DHT22;18385;51.572;6.578;2023-01-19T13:34:25;7.60;72.60
31677;DHT22;18385;51.572;6.578;2023-01-19T13:36:54;7.70;72.60
31677;DHT22;18385;51.572;6.578;2023-01-19T13:39:34;7.70;72.50
31677;DHT22;18385;51.572;6.578;2023-01-19T13:42:05;7.70;72.30
31677;DHT22;18385;51.572;6.578;2023-01-19T13:44:39;7.60;72.40
31677;DHT22;18385;51.572;6.578;2023-01-19T13:47:17;7.60;72.40
31677;DHT22;18385;51.572;6.578;2023-01-19T13:49:47;7.60;72.40
31677;DHT22;18385;51.572;6.578;2023-01-19T13:52:20;7.60;72.50
31677;DHT22;18385;51.572;6.578;2023-01-19T13:54:48;7.60;72.30
31677;DHT22;18385;51.572;6.578;2023-01-19T13:57:31;7.50;72.30
31677;DHT22;18385;51.572;6.578;2023-01-19T14:05:34;7.50;72.40
31677;DHT22;18385;51.572;6.578;2023-01-19T14:08:12;7.50;72.40
31677;DHT22;18385;51.572;6.578;2023-01-19T14:10:40;7.50;72.50
31677;DHT22;18385;51.572;6.578;2023-01-19T14:13:20;7.50;72.70
31677;DHT22;18385;51.572;6.578;2023-01-19T14:15:48;7.60;72.60
31677;DHT22;18385;51.572;6.578;2023-01-19T14:26:33;7.60;72.30
31677;DHT22;18385;51.572;6.578;2023-01-19T14:28:51;7.60;72.40
31677;DHT22;18385;51.572;6.578;2023-01-19T14:31:21;7.60;72.40
31677;DHT22;18385;51.572;6.578;2023-01-19T14:33:55;7.60;72.20
31677;DHT22;18385;51.572;6.578;2023-01-19T14:38:51;7.60;72.40
31677;DHT22;18385;51.572;6.578;2023-01-19T14:41:36;7.50;72.50
31677;DHT22;18385;51.572;6.578;2023-01-19T14:44:10;7.80;73.10
31677;DHT22;18385;51.572;6.578;2023-01-19T14:46:45;8.10;73.40
31677;DHT22;18385;51.572;6.578;2023-01-19T14:49:31;8.40;73.30
31677;DHT22;18385;51.572;6.578;2023-01-19T14:52:00;8.40;71.90
31677;DHT22;18385;51.572;6.578;2023-01-19T14:54:34;8.30;71.60
31677;DHT22;18385;51.572;6.578;2023-01-19T14:57:02;8.10;71.30
31677;DHT22;18385;51.572;6.578;2023-01-19T14:59:31;7.90;71.40
31677;DHT22;18385;51.572;6.578;2023-01-19T15:01:56;7.70;71.40
31677;DHT22;18385;51.572;6.578;2023-01-19T15:04:24;7.60;71.60
31677;DHT22;18385;51.572;6.578;2023-01-19T15:06:50;7.40;71.60
31677;DHT22;18385;51.572;6.578;2023-01-19T15:09:16;7.30;71.80
31677;DHT22;18385;51.572;6.578;2023-01-19T15:11:42;7.20;71.90
31677;DHT22;18385;51.572;6.578;2023-01-19T15:14:13;7.20;72.00
31677;DHT22;18385;51.572;6.578;2023-01-19T15:16:40;7.10;72.20
31677;DHT22;18385;51.572;6.578;2023-01-19T15:19:13;7.10;72.20
31677;DHT22;18385;51.572;6.578;2023-01-19T15:21:39;7.00;72.10
31677;DHT22;18385;51.572;6.578;2023-01-19T15:24:10;6.90;72.10
31677;DHT22;18385;51.572;6.578;2023-01-19T15:26:38;6.90;72.30
31677;DHT22;18385;51.572;6.578;2023-01-19T15:31:45;6.90;72.60
31677;DHT22;18385;51.572;6.578;2023-01-19T15:34:11;6.90;72.40
31677;DHT22;18385;51.572;6.578;2023-01-19T15:36:37;6.90;72.30
31677;DHT22;18385;51.572;6.578;2023-01-19T15:39:03;6.90;72.30
31677;DHT22;18385;51.572;6.578;2023-01-19T15:41:29;6.90;72.40
31677;DHT22;18385;51.572;6.578;2023-01-19T15:43:55;6.90;72.30
31677;DHT22;18385;51.572;6.578;2023-01-19T15:46:22;6.90;72.20
31677;DHT22;18385;51.572;6.578;2023-01-19T15:48:49;6.80;72.00
31677;DHT22;18385;51.572;6.578;2023-01-19T15:51:17;6.70;72.20
31677;DHT22;18385;51.572;6.578;2023-01-19T15:53:44;6.60;72.30
31677;DHT22;18385;51.572;6.578;2023-01-19T15:56:14;6.60;72.30
31677;DHT22;18385;51.572;6.578;2023-01-19T15:58:41;6.60;72.30
31677;DHT22;18385;51.572;6.578;2023-01-19T16:01:15;6.50;72.20
31677;DHT22;18385;51.572;6.578;2023-01-19T16:03:41;6.40;72.20
31677;DHT22;18385;51.572;6.578;2023-01-19T16:06:08;6.40;72.30
31677;DHT22;18385;51.572;6.578;2023-01-19T16:08:35;6.30;72.30
31677;DHT22;18385;51.572;6.578;2023-01-19T16:11:05;6.30;72.30
31677;DHT22;18385;51.572;6.578;2023-01-19T16:13:31;6.30;72.40
31677;DHT22;18385;51.572;6.578;2023-01-19T16:16:05;6.30;72.40
31677;DHT22;18385;51.572;6.578;2023-01-19T16:18:31;6.20;72.40
31677;DHT22;18385;51.572;6.578;2023-01-19T16:20:57;6.20;72.60
31677;DHT22;18385;51.572;6.578;2023-01-19T16:23:23;6.30;72.70
31677;DHT22;18385;51.572;6.578;2023-01-19T16:26:06;6.30;72.70
31677;DHT22;18385;51.572;6.578;2023-01-19T16:28:33;6.40;72.50
31677;DHT22;18385;51.572;6.578;2023-01-19T16:31:00;6.40;72.50
31677;DHT22;18385;51.572;6.578;2023-01-19T16:33:25;6.40;72.30
31677;DHT22;18385;51.572;6.578;2023-01-19T16:35:51;6.40;72.20
31677;DHT22;18385;51.572;6.578;2023-01-19T16:38:18;6.40;72.20
31677;DHT22;18385;51.572;6.578;2023-01-19T16:40:44;6.50;72.30
31677;DHT22;18385;51.572;6.578;2023-01-19T16:43:10;6.50;72.20
31677;DHT22;18385;51.572;6.578;2023-01-19T16:46:01;6.40;72.20
31677;DHT22;18385;51.572;6.578;2023-01-19T16:48:27;6.50;72.20
31677;DHT22;18385;51.572;6.578;2023-01-19T16:51:01;6.40;72.20
31677;DHT22;18385;51.572;6.578;2023-01-19T16:53:28;6.40;72.10
31677;DHT22;18385;51.572;6.578;2023-01-19T16:55:54;6.30;72.10
31677;DHT22;18385;51.572;6.578;2023-01-19T16:58:19;6.30;72.20
31677;DHT22;18385;51.572;6.578;2023-01-19T17:00:45;6.30;72.30
31677;DHT22;18385;51.572;6.578;2023-01-19T17:03:10;6.40;72.20
31677;DHT22;18385;51.572;6.578;2023-01-19T17:05:36;6.40;72.10
31677;DHT22;18385;51.572;6.578;2023-01-19T17:08:02;6.40;72.20
31677;DHT22;18385;51.572;6.578;2023-01-19T17:10:27;6.40;72.10
31677;DHT22;18385;51.572;6.578;2023-01-19T17:12:53;6.40;72.10
31677;DHT22;18385;51.572;6.578;2023-01-19T17:15:19;6.40;72.00
31677;DHT22;18385;51.572;6.578;2023-01-19T17:17:44;6.40;72.00
31677;DHT22;18385;51.572;6.578;2023-01-19T17:20:10;6.40;72.00
31677;DHT22;18385;51.572;6.578;2023-01-19T17:22:36;6.40;71.90